sensor_id;sensor_type;location;lat;lon;timestamp;P1;durP1;ratioP1;P2;durP2;ratioP2
5026;SDS011;2532;52.480;13.354;2023-05-16T04:02:47;23.53;;;17.77;;
5026;SDS011;2532;52.480;13.354;2023-05-16T04:05:14;27.10;;;18.20;;
5026;SDS011;2532;52.480;13.354;2023-05-16T04:07:41;26.33;;;19.30;;
5026;SDS011;2532;52.480;13.354;2023-05-16T04:10:08;25.67;;;18.77;;
5026;SDS011;2532;52.480;13.354;2023-05-16T04:12:36;25.43;;;18.63;;
5026;SDS011;2532;52.480;13.354;2023-05-16T04:15:03;31.27;;;20.27;;
5026;SDS011;2532;52.480;13.354;2023-05-16T04:17:31;23.10;;;17.00;;
5026;SDS011;2532;52.480;13.354;2023-05-16T04:19:59;25.00;;;18.30;;
5026;SDS011;2532;52.480;13.354;2023-05-16T04:22:26;23.53;;;17.93;;
5026;SDS011;2532;52.480;13.354;2023-05-16T04:24:53;24.67;;;17.50;;
5026;SDS011;2532;52.480;13.354;2023-05-16T04:27:21;26.73;;;16.80;;
5026;SDS011;2532;52.480;13.354;2023-05-16T04:29:48;22.10;;;16.67;;
5026;SDS011;2532;52.480;13.354;2023-05-16T04:32:15;25.20;;;17.47;;
5026;SDS011;2532;52.480;13.354;2023-05-16T04:34:42;24.40;;;17.20;;
5026;SDS011;2532;52.480;13.354;2023-05-16T04:37:12;27.43;;;18.17;;
5026;SDS011;2532;52.480;13.354;2023-05-16T04:39:39;22.00;;;16.87;;
5026;SDS011;2532;52.480;13.354;2023-05-16T04:42:07;27.07;;;17.63;;
5026;SDS011;2532;52.480;13.354;2023-05-16T04:44:34;24.50;;;18.10;;
5026;SDS011;2532;52.480;13.354;2023-05-16T04:47:01;24.77;;;17.80;;
5026;SDS011;2532;52.480;13.354;2023-05-16T04:49:28;23.73;;;17.03;;
5026;SDS011;2532;52.480;13.354;2023-05-16T04:51:55;23.10;;;16.90;;
5026;SDS011;2532;52.480;13.354;2023-05-16T04:54:23;32.90;;;17.23;;
5026;SDS011;2532;52.480;13.354;2023-05-16T04:56:50;27.30;;;17.07;;
5026;SDS011;2532;52.480;13.354;2023-05-16T04:59:17;25.73;;;16.70;;
5026;SDS011;2532;52.480;13.354;2023-05-16T05:01:45;21.93;;;17.27;;
5026;SDS011;2532;52.480;13.354;2023-05-16T05:04:12;24.80;;;18.03;;
5026;SDS011;2532;52.480;13.354;2023-05-16T05:06:38;26.93;;;17.80;;
5026;SDS011;2532;52.480;13.354;2023-05-16T05:09:05;29.33;;;19.50;;
5026;SDS011;2532;52.480;13.354;2023-05-16T05:11:34;22.30;;;17.00;;
5026;SDS011;2532;52.480;13.354;2023-05-16T05:14:00;24.70;;;17.23;;
5026;SDS011;2532;52.480;13.354;2023-05-16T05:16:28;24.53;;;17.83;;
5026;SDS011;2532;52.480;13.354;2023-05-16T05:18:54;22.53;;;16.20;;
5026;SDS011;2532;52.480;13.354;2023-05-16T05:21:22;27.20;;;17.00;;
5026;SDS011;2532;52.480;13.354;2023-05-16T05:23:50;27.37;;;19.00;;
5026;SDS011;2532;52.480;13.354;2023-05-16T05:26:17;29.30;;;18.57;;
5026;SDS011;2532;52.480;13.354;2023-05-16T05:28:47;24.80;;;17.50;;
5026;SDS011;2532;52.480;13.354;2023-05-16T05:31:14;30.77;;;18.90;;
5026;SDS011;2532;52.480;13.354;2023-05-16T05:33:41;28.00;;;16.47;;
5026;SDS011;2532;52.480;13.354;2023-05-16T05:36:08;23.27;;;16.27;;
5026;SDS011;2532;52.480;13.354;2023-05-16T05:38:35;23.53;;;17.30;;
5026;SDS011;2532;52.480;13.354;2023-05-16T05:41:02;23.00;;;17.33;;
5026;SDS011;2532;52.480;13.354;2023-05-16T05:43:32;24.63;;;16.73;;
5026;SDS011;2532;52.480;13.354;2023-05-16T05:46:00;28.30;;;17.63;;
5026;SDS011;2532;52.480;13.354;2023-05-16T05:48:27;21.17;;;14.87;;
5026;SDS011;2532;52.480;13.354;2023-05-16T05:50:54;25.37;;;14.90;;
5026;SDS011;2532;52.480;13.354;2023-05-16T05:53:21;25.67;;;14.67;;
5026;SDS011;2532;52.480;13.354;2023-05-16T05:55:48;17.77;;;13.70;;
5026;SDS011;2532;52.480;13.354;2023-05-16T05:58:15;20.00;;;14.07;;
5026;SDS011;2532;52.480;13.354;2023-05-16T06:00:42;23.53;;;12.80;;
5026;SDS011;2532;52.480;13.354;2023-05-16T06:03:11;16.10;;;11.77;;
5026;SDS011;2532;52.480;13.354;2023-05-16T06:05:38;17.10;;;13.47;;
5026;SDS011;2532;52.480;13.354;2023-05-16T06:08:05;17.13;;;12.23;;
5026;SDS011;2532;52.480;13.354;2023-05-16T06:10:32;18.60;;;13.60;;
5026;SDS011;2532;52.480;13.354;2023-05-16T06:12:59;18.50;;;12.93;;
5026;SDS011;2532;52.480;13.354;2023-05-16T06:15:26;19.90;;;13.20;;
5026;SDS011;2532;52.480;13.354;2023-05-16T06:17:53;16.80;;;12.30;;
5026;SDS011;2532;52.480;13.354;2023-05-16T06:20:21;21.23;;;13.07;;
5026;SDS011;2532;52.480;13.354;2023-05-16T06:22:48;16.53;;;13.20;;
5026;SDS011;2532;52.480;13.354;2023-05-16T06:25:15;19.60;;;13.27;;
5026;SDS011;2532;52.480;13.354;2023-05-16T06:27:42;16.37;;;13.20;;
5026;SDS011;2532;52.480;13.354;2023-05-16T06:30:09;15.03;;;12.00;;
5026;SDS011;2532;52.480;13.354;2023-05-16T06:32:36;16.37;;;12.47;;
5026;SDS011;2532;52.480;13.354;2023-05-16T06:35:04;14.23;;;12.10;;
5026;SDS011;2532;52.480;13.354;2023-05-16T06:37:33;16.40;;;12.00;;
5026;SDS011;2532;52.480;13.354;2023-05-16T06:40:04;13.93;;;11.37;;
5026;SDS011;2532;52.480;13.354;2023-05-16T06:42:32;15.20;;;10.63;;
5026;SDS011;2532;52.480;13.354;2023-05-16T06:44:59;13.17;;;10.20;;
5026;SDS011;2532;52.480;13.354;2023-05-16T06:47:26;24.37;;;12.23;;
5026;SDS011;2532;52.480;13.354;2023-05-16T06:49:53;13.70;;;10.30;;
5026;SDS011;2532;52.480;13.354;2023-05-16T06:52:24;13.17;;;10.00;;
5026;SDS011;2532;52.480;13.354;2023-05-16T06:54:52;11.13;;;9.37;;
5026;SDS011;2532;52.480;13.354;2023-05-16T06:57:19;18.50;;;11.40;;
5026;SDS011;2532;52.480;13.354;2023-05-16T06:59:46;15.17;;;9.63;;
5026;SDS011;2532;52.480;13.354;2023-05-16T07:02:13;9.57;;;8.57;;
5026;SDS011;2532;52.480;13.354;2023-05-16T07:04:40;10.07;;;8.80;;
5026;SDS011;2532;52.480;13.354;2023-05-16T07:07:07;11.10;;;9.03;;
5026;SDS011;2532;52.480;13.354;2023-05-16T07:09:34;12.10;;;8.60;;
5026;SDS011;2532;52.480;13.354;2023-05-16T07:12:03;11.20;;;8.20;;
5026;SDS011;2532;52.480;13.354;2023-05-16T07:14:30;11.33;;;8.23;;
5026;SDS011;2532;52.480;13.354;2023-05-16T07:16:57;9.83;;;7.67;;
5026;SDS011;2532;52.480;13.354;2023-05-16T07:19:24;12.33;;;8.43;;
5026;SDS011;2532;52.480;13.354;2023-05-16T07:21:51;8.47;;;7.10;;
5026;SDS011;2532;52.480;13.354;2023-05-16T07:24:18;10.10;;;7.40;;
5026;SDS011;2532;52.480;13.354;2023-05-16T07:26:45;11.50;;;8.00;;
5026;SDS011;2532;52.480;13.354;2023-05-16T07:29:15;11.50;;;6.93;;
5026;SDS011;2532;52.480;13.354;2023-05-16T07:31:41;14.93;;;7.77;;
5026;SDS011;2532;52.480;13.354;2023-05-16T07:34:09;12.20;;;7.10;;
5026;SDS011;2532;52.480;13.354;2023-05-16T07:36:36;13.90;;;6.80;;
5026;SDS011;2532;52.480;13.354;2023-05-16T07:39:03;14.43;;;7.27;;
5026;SDS011;2532;52.480;13.354;2023-05-16T07:41:30;11.53;;;7.23;;
5026;SDS011;2532;52.480;13.354;2023-05-16T07:43:57;7.20;;;6.17;;
5026;SDS011;2532;52.480;13.354;2023-05-16T07:46:25;9.20;;;6.60;;
5026;SDS011;2532;52.480;13.354;2023-05-16T07:48:52;9.33;;;6.13;;
5026;SDS011;2532;52.480;13.354;2023-05-16T07:51:19;8.03;;;5.70;;
5026;SDS011;2532;52.480;13.354;2023-05-16T07:53:46;8.40;;;6.23;;
5026;SDS011;2532;52.480;13.354;2023-05-16T07:56:13;11.53;;;6.00;;
5026;SDS011;2532;52.480;13.354;2023-05-16T07:58:40;8.97;;;5.13;;
5026;SDS011;2532;52.480;13.354;2023-05-16T08:01:07;7.77;;;5.73;;
5026;SDS011;2532;52.480;13.354;2023-05-16T08:03:35;6.73;;;5.23;;
5026;SDS011;2532;52.480;13.354;2023-05-16T08:06:02;9.20;;;5.00;;
5026;SDS011;2532;52.480;13.354;2023-05-16T08:08:29;7.10;;;5.50;;
5026;SDS011;2532;52.480;13.354;2023-05-16T08:10:56;8.50;;;5.70;;
5026;SDS011;2532;52.480;13.354;2023-05-16T08:13:23;7.57;;;5.57;;
5026;SDS011;2532;52.480;13.354;2023-05-16T08:15:49;6.67;;;5.43;;
5026;SDS011;2532;52.480;13.354;2023-05-16T08:18:16;9.47;;;5.37;;
5026;SDS011;2532;52.480;13.354;2023-05-16T08:20:45;7.73;;;5.33;;
5026;SDS011;2532;52.480;13.354;2023-05-16T08:23:12;6.13;;;5.30;;
5026;SDS011;2532;52.480;13.354;2023-05-16T08:25:39;8.10;;;5.43;;
5026;SDS011;2532;52.480;13.354;2023-05-16T08:28:06;6.37;;;5.03;;
5026;SDS011;2532;52.480;13.354;2023-05-16T08:30:33;5.67;;;5.10;;
5026;SDS011;2532;52.480;13.354;2023-05-16T08:33:00;6.43;;;5.00;;
5026;SDS011;2532;52.480;13.354;2023-05-16T08:35:29;8.07;;;5.20;;
5026;SDS011;2532;52.480;13.354;2023-05-16T08:37:57;7.90;;;5.10;;
5026;SDS011;2532;52.480;13.354;2023-05-16T08:40:25;8.30;;;5.27;;
5026;SDS011;2532;52.480;13.354;2023-05-16T08:42:52;7.97;;;5.27;;
5026;SDS011;2532;52.480;13.354;2023-05-16T08:45:19;7.40;;;4.63;;
5026;SDS011;2532;52.480;13.354;2023-05-16T08:47:46;6.17;;;4.77;;
5026;SDS011;2532;52.480;13.354;2023-05-16T08:50:15;5.17;;;4.40;;
5026;SDS011;2532;52.480;13.354;2023-05-16T08:52:42;10.80;;;4.60;;
5026;SDS011;2532;52.480;13.354;2023-05-16T08:55:13;6.50;;;4.10;;
5026;SDS011;2532;52.480;13.354;2023-05-16T08:57:42;8.73;;;4.57;;
5026;SDS011;2532;52.480;13.354;2023-05-16T09:00:10;5.20;;;3.97;;
5026;SDS011;2532;52.480;13.354;2023-05-16T09:02:39;7.23;;;4.43;;
5026;SDS011;2532;52.480;13.354;2023-05-16T09:07:34;7.03;;;4.23;;
5026;SDS011;2532;52.480;13.354;2023-05-16T09:10:01;5.37;;;3.87;;
5026;SDS011;2532;52.480;13.354;2023-05-16T09:12:32;7.17;;;3.70;;
5026;SDS011;2532;52.480;13.354;2023-05-16T09:14:59;5.73;;;4.10;;
5026;SDS011;2532;52.480;13.354;2023-05-16T09:17:30;8.03;;;4.63;;
5026;SDS011;2532;52.480;13.354;2023-05-16T09:20:07;11.07;;;4.00;;
5026;SDS011;2532;52.480;13.354;2023-05-16T09:22:35;4.80;;;3.63;;
5026;SDS011;2532;52.480;13.354;2023-05-16T09:25:02;8.73;;;3.67;;
5026;SDS011;2532;52.480;13.354;2023-05-16T09:27:30;4.90;;;3.00;;
5026;SDS011;2532;52.480;13.354;2023-05-16T09:29:58;5.20;;;3.70;;
5026;SDS011;2532;52.480;13.354;2023-05-16T09:32:25;7.27;;;3.63;;
5026;SDS011;2532;52.480;13.354;2023-05-16T09:34:53;9.30;;;3.93;;
5026;SDS011;2532;52.480;13.354;2023-05-16T09:37:22;6.27;;;3.00;;
5026;SDS011;2532;52.480;13.354;2023-05-16T09:39:50;7.47;;;3.40;;
5026;SDS011;2532;52.480;13.354;2023-05-16T09:42:19;8.60;;;3.57;;
5026;SDS011;2532;52.480;13.354;2023-05-16T09:44:47;7.60;;;3.30;;
5026;SDS011;2532;52.480;13.354;2023-05-16T09:47:15;9.53;;;2.93;;
5026;SDS011;2532;52.480;13.354;2023-05-16T09:49:43;4.77;;;3.30;;
5026;SDS011;2532;52.480;13.354;2023-05-16T09:52:11;15.33;;;3.80;;
5026;SDS011;2532;52.480;13.354;2023-05-16T09:54:39;6.23;;;2.90;;
5026;SDS011;2532;52.480;13.354;2023-05-16T09:57:06;8.53;;;2.93;;
5026;SDS011;2532;52.480;13.354;2023-05-16T09:59:34;6.40;;;3.63;;
5026;SDS011;2532;52.480;13.354;2023-05-16T10:02:04;8.00;;;3.27;;
5026;SDS011;2532;52.480;13.354;2023-05-16T10:04:32;4.67;;;3.10;;
5026;SDS011;2532;52.480;13.354;2023-05-16T10:07:00;11.83;;;3.30;;
5026;SDS011;2532;52.480;13.354;2023-05-16T10:09:29;13.83;;;3.97;;
5026;SDS011;2532;52.480;13.354;2023-05-16T10:11:59;12.33;;;4.27;;
5026;SDS011;2532;52.480;13.354;2023-05-16T10:14:28;9.33;;;3.67;;
5026;SDS011;2532;52.480;13.354;2023-05-16T10:16:57;10.50;;;4.17;;
5026;SDS011;2532;52.480;13.354;2023-05-16T10:19:25;8.43;;;4.03;;
5026;SDS011;2532;52.480;13.354;2023-05-16T10:21:56;11.83;;;4.77;;
5026;SDS011;2532;52.480;13.354;2023-05-16T10:24:28;11.33;;;4.57;;
5026;SDS011;2532;52.480;13.354;2023-05-16T10:27:02;13.17;;;5.33;;
5026;SDS011;2532;52.480;13.354;2023-05-16T10:29:30;10.77;;;4.77;;
5026;SDS011;2532;52.480;13.354;2023-05-16T10:31:57;12.23;;;5.13;;
5026;SDS011;2532;52.480;13.354;2023-05-16T10:34:26;10.83;;;6.30;;
5026;SDS011;2532;52.480;13.354;2023-05-16T10:36:54;13.00;;;5.10;;
5026;SDS011;2532;52.480;13.354;2023-05-16T10:39:21;12.30;;;4.53;;
5026;SDS011;2532;52.480;13.354;2023-05-16T10:41:49;10.57;;;5.27;;
5026;SDS011;2532;52.480;13.354;2023-05-16T10:44:16;13.63;;;4.93;;
5026;SDS011;2532;52.480;13.354;2023-05-16T10:46:45;11.97;;;6.33;;
5026;SDS011;2532;52.480;13.354;2023-05-16T10:49:19;9.03;;;4.60;;
5026;SDS011;2532;52.480;13.354;2023-05-16T10:51:49;8.40;;;4.43;;
5026;SDS011;2532;52.480;13.354;2023-05-16T10:54:32;15.73;;;4.30;;
5026;SDS011;2532;52.480;13.354;2023-05-16T10:57:04;9.77;;;4.03;;
5026;SDS011;2532;52.480;13.354;2023-05-16T10:59:42;11.60;;;5.00;;
5026;SDS011;2532;52.480;13.354;2023-05-16T11:04:57;12.40;;;4.67;;
5026;SDS011;2532;52.480;13.354;2023-05-16T11:07:30;17.77;;;4.63;;
5026;SDS011;2532;52.480;13.354;2023-05-16T11:10:03;14.60;;;4.73;;
5026;SDS011;2532;52.480;13.354;2023-05-16T11:12:35;7.13;;;3.73;;
5026;SDS011;2532;52.480;13.354;2023-05-16T11:15:16;13.63;;;4.70;;
5026;SDS011;2532;52.480;13.354;2023-05-16T11:17:48;10.97;;;3.97;;
5026;SDS011;2532;52.480;13.354;2023-05-16T11:20:25;9.70;;;4.00;;
5026;SDS011;2532;52.480;13.354;2023-05-16T11:25:53;6.97;;;3.20;;
5026;SDS011;2532;52.480;13.354;2023-05-16T11:28:21;9.07;;;4.40;;
5026;SDS011;2532;52.480;13.354;2023-05-16T11:30:51;9.33;;;4.53;;
5026;SDS011;2532;52.480;13.354;2023-05-16T11:33:20;9.43;;;3.50;;
5026;SDS011;2532;52.480;13.354;2023-05-16T11:36:03;13.90;;;4.73;;
5026;SDS011;2532;52.480;13.354;2023-05-16T11:38:33;13.77;;;3.80;;
5026;SDS011;2532;52.480;13.354;2023-05-16T11:41:04;12.50;;;4.33;;
5026;SDS011;2532;52.480;13.354;2023-05-16T11:43:38;14.63;;;4.57;;
5026;SDS011;2532;52.480;13.354;2023-05-16T11:46:06;8.87;;;4.20;;
5026;SDS011;2532;52.480;13.354;2023-05-16T11:48:36;12.93;;;4.90;;
5026;SDS011;2532;52.480;13.354;2023-05-16T11:51:04;9.77;;;4.30;;
5026;SDS011;2532;52.480;13.354;2023-05-16T11:53:33;10.97;;;3.83;;
5026;SDS011;2532;52.480;13.354;2023-05-16T11:56:00;7.90;;;4.03;;
5026;SDS011;2532;52.480;13.354;2023-05-16T11:58:27;10.10;;;4.00;;
5026;SDS011;2532;52.480;13.354;2023-05-16T12:00:54;8.20;;;3.87;;
5026;SDS011;2532;52.480;13.354;2023-05-16T12:03:22;9.97;;;4.10;;
5026;SDS011;2532;52.480;13.354;2023-05-16T12:05:49;12.87;;;4.40;;
5026;SDS011;2532;52.480;13.354;2023-05-16T12:08:17;8.53;;;3.70;;
5026;SDS011;2532;52.480;13.354;2023-05-16T12:10:47;10.00;;;3.80;;
5026;SDS011;2532;52.480;13.354;2023-05-16T12:13:15;9.80;;;4.90;;
5026;SDS011;2532;52.480;13.354;2023-05-16T12:15:43;14.97;;;4.70;;
5026;SDS011;2532;52.480;13.354;2023-05-16T12:18:13;16.93;;;4.00;;
5026;SDS011;2532;52.480;13.354;2023-05-16T12:20:41;9.27;;;4.40;;
5026;SDS011;2532;52.480;13.354;2023-05-16T12:23:09;10.03;;;3.70;;
5026;SDS011;2532;52.480;13.354;2023-05-16T12:25:38;5.30;;;3.30;;
5026;SDS011;2532;52.480;13.354;2023-05-16T12:28:12;14.10;;;4.53;;
5026;SDS011;2532;52.480;13.354;2023-05-16T12:30:41;14.30;;;5.50;;
5026;SDS011;2532;52.480;13.354;2023-05-16T12:33:09;10.60;;;4.70;;
5026;SDS011;2532;52.480;13.354;2023-05-16T12:35:38;12.57;;;4.27;;
5026;SDS011;2532;52.480;13.354;2023-05-16T12:38:05;6.90;;;3.80;;
5026;SDS011;2532;52.480;13.354;2023-05-16T12:40:35;9.07;;;3.93;;
5026;SDS011;2532;52.480;13.354;2023-05-16T12:43:03;6.57;;;4.30;;
5026;SDS011;2532;52.480;13.354;2023-05-16T12:45:32;11.30;;;3.43;;
5026;SDS011;2532;52.480;13.354;2023-05-16T12:48:03;11.27;;;4.23;;
5026;SDS011;2532;52.480;13.354;2023-05-16T12:50:32;13.03;;;4.23;;
5026;SDS011;2532;52.480;13.354;2023-05-16T12:52:59;11.23;;;3.80;;
5026;SDS011;2532;52.480;13.354;2023-05-16T12:55:26;13.37;;;4.50;;
5026;SDS011;2532;52.480;13.354;2023-05-16T12:57:54;8.17;;;3.40;;
5026;SDS011;2532;52.480;13.354;2023-05-16T13:00:22;13.13;;;4.47;;
5026;SDS011;2532;52.480;13.354;2023-05-16T13:02:50;7.63;;;3.60;;
5026;SDS011;2532;52.480;13.354;2023-05-16T13:05:17;11.47;;;3.43;;
5026;SDS011;2532;52.480;13.354;2023-05-16T13:07:46;10.03;;;4.07;;
5026;SDS011;2532;52.480;13.354;2023-05-16T13:10:15;15.20;;;3.50;;
5026;SDS011;2532;52.480;13.354;2023-05-16T13:12:45;7.80;;;3.03;;
5026;SDS011;2532;52.480;13.354;2023-05-16T13:15:12;9.00;;;4.10;;
5026;SDS011;2532;52.480;13.354;2023-05-16T13:17:40;11.20;;;3.50;;
5026;SDS011;2532;52.480;13.354;2023-05-16T13:20:10;15.80;;;4.03;;
5026;SDS011;2532;52.480;13.354;2023-05-16T13:22:39;6.53;;;2.80;;
5026;SDS011;2532;52.480;13.354;2023-05-16T13:25:07;13.10;;;3.97;;
5026;SDS011;2532;52.480;13.354;2023-05-16T13:27:36;11.03;;;3.83;;
5026;SDS011;2532;52.480;13.354;2023-05-16T13:30:04;7.87;;;3.90;;
5026;SDS011;2532;52.480;13.354;2023-05-16T13:32:31;11.98;;;3.70;;
5026;SDS011;2532;52.480;13.354;2023-05-16T13:34:58;9.90;;;3.80;;
5026;SDS011;2532;52.480;13.354;2023-05-16T13:37:26;8.73;;;3.90;;
5026;SDS011;2532;52.480;13.354;2023-05-16T13:39:54;11.60;;;3.53;;
5026;SDS011;2532;52.480;13.354;2023-05-16T13:42:21;9.77;;;3.93;;
5026;SDS011;2532;52.480;13.354;2023-05-16T13:44:47;15.67;;;3.70;;
5026;SDS011;2532;52.480;13.354;2023-05-16T13:47:15;11.03;;;3.60;;
5026;SDS011;2532;52.480;13.354;2023-05-16T13:49:42;13.00;;;3.77;;
5026;SDS011;2532;52.480;13.354;2023-05-16T13:52:09;9.57;;;3.17;;
5026;SDS011;2532;52.480;13.354;2023-05-16T13:54:39;10.20;;;3.20;;
5026;SDS011;2532;52.480;13.354;2023-05-16T13:57:06;8.73;;;3.20;;
5026;SDS011;2532;52.480;13.354;2023-05-16T13:59:32;10.37;;;2.77;;
5026;SDS011;2532;52.480;13.354;2023-05-16T14:02:00;10.60;;;3.33;;
5026;SDS011;2532;52.480;13.354;2023-05-16T14:04:27;11.73;;;3.50;;
5026;SDS011;2532;52.480;13.354;2023-05-16T14:06:54;8.90;;;2.90;;
5026;SDS011;2532;52.480;13.354;2023-05-16T14:09:21;10.23;;;2.83;;
5026;SDS011;2532;52.480;13.354;2023-05-16T14:11:49;7.60;;;3.63;;
5026;SDS011;2532;52.480;13.354;2023-05-16T14:14:16;10.90;;;3.87;;
5026;SDS011;2532;52.480;13.354;2023-05-16T14:16:43;6.60;;;2.77;;
5026;SDS011;2532;52.480;13.354;2023-05-16T14:19:11;9.93;;;3.50;;
5026;SDS011;2532;52.480;13.354;2023-05-16T14:21:38;8.53;;;3.30;;
5026;SDS011;2532;52.480;13.354;2023-05-16T14:24:06;9.40;;;3.87;;
5026;SDS011;2532;52.480;13.354;2023-05-16T14:26:33;6.30;;;2.73;;
5026;SDS011;2532;52.480;13.354;2023-05-16T14:29:01;5.30;;;2.97;;
5026;SDS011;2532;52.480;13.354;2023-05-16T14:31:28;7.73;;;2.90;;
5026;SDS011;2532;52.480;13.354;2023-05-16T14:33:55;10.20;;;3.63;;
5026;SDS011;2532;52.480;13.354;2023-05-16T14:36:23;7.73;;;3.27;;
5026;SDS011;2532;52.480;13.354;2023-05-16T14:38:49;8.80;;;4.17;;
5026;SDS011;2532;52.480;13.354;2023-05-16T14:41:17;5.47;;;3.90;;
5026;SDS011;2532;52.480;13.354;2023-05-16T14:43:44;11.93;;;4.43;;
5026;SDS011;2532;52.480;13.354;2023-05-16T14:46:12;11.00;;;5.00;;
5026;SDS011;2532;52.480;13.354;2023-05-16T14:48:39;7.27;;;3.50;;
5026;SDS011;2532;52.480;13.354;2023-05-16T14:51:06;10.07;;;3.00;;
5026;SDS011;2532;52.480;13.354;2023-05-16T14:53:33;6.77;;;3.07;;
5026;SDS011;2532;52.480;13.354;2023-05-16T14:56:00;8.40;;;3.20;;
5026;SDS011;2532;52.480;13.354;2023-05-16T14:58:28;6.50;;;3.77;;
5026;SDS011;2532;52.480;13.354;2023-05-16T15:00:54;8.47;;;3.30;;
5026;SDS011;2532;52.480;13.354;2023-05-16T15:03:23;6.73;;;3.40;;
5026;SDS011;2532;52.480;13.354;2023-05-16T15:05:50;6.83;;;3.37;;
5026;SDS011;2532;52.480;13.354;2023-05-16T15:08:18;12.40;;;3.40;;
5026;SDS011;2532;52.480;13.354;2023-05-16T15:10:46;6.93;;;3.40;;
5026;SDS011;2532;52.480;13.354;2023-05-16T15:13:13;8.10;;;3.20;;
5026;SDS011;2532;52.480;13.354;2023-05-16T15:15:40;5.90;;;2.80;;
5026;SDS011;2532;52.480;13.354;2023-05-16T15:18:08;5.73;;;2.97;;
5026;SDS011;2532;52.480;13.354;2023-05-16T15:20:37;4.80;;;2.70;;
5026;SDS011;2532;52.480;13.354;2023-05-16T15:23:04;6.80;;;3.37;;
5026;SDS011;2532;52.480;13.354;2023-05-16T15:25:31;7.40;;;3.53;;
5026;SDS011;2532;52.480;13.354;2023-05-16T15:27:58;9.37;;;3.23;;
5026;SDS011;2532;52.480;13.354;2023-05-16T15:30:25;6.30;;;3.70;;
5026;SDS011;2532;52.480;13.354;2023-05-16T15:32:52;8.87;;;3.80;;
5026;SDS011;2532;52.480;13.354;2023-05-16T15:35:19;4.20;;;3.00;;
5026;SDS011;2532;52.480;13.354;2023-05-16T15:37:47;7.40;;;2.93;;
5026;SDS011;2532;52.480;13.354;2023-05-16T15:40:14;7.87;;;4.70;;
5026;SDS011;2532;52.480;13.354;2023-05-16T15:42:42;7.47;;;2.70;;
5026;SDS011;2532;52.480;13.354;2023-05-16T15:45:10;3.77;;;2.60;;
5026;SDS011;2532;52.480;13.354;2023-05-16T15:47:37;4.47;;;3.10;;
5026;SDS011;2532;52.480;13.354;2023-05-16T15:50:04;6.83;;;3.77;;
5026;SDS011;2532;52.480;13.354;2023-05-16T15:52:31;4.80;;;2.83;;
5026;SDS011;2532;52.480;13.354;2023-05-16T15:55:01;7.13;;;2.90;;
5026;SDS011;2532;52.480;13.354;2023-05-16T15:57:28;9.23;;;3.03;;
5026;SDS011;2532;52.480;13.354;2023-05-16T15:59:56;6.20;;;4.07;;
5026;SDS011;2532;52.480;13.354;2023-05-16T16:02:23;8.90;;;4.93;;
5026;SDS011;2532;52.480;13.354;2023-05-16T16:04:50;8.27;;;3.03;;
5026;SDS011;2532;52.480;13.354;2023-05-16T16:07:16;9.33;;;3.53;;
5026;SDS011;2532;52.480;13.354;2023-05-16T16:09:43;5.70;;;2.73;;
5026;SDS011;2532;52.480;13.354;2023-05-16T16:12:12;8.93;;;3.00;;
5026;SDS011;2532;52.480;13.354;2023-05-16T16:14:39;5.37;;;2.87;;
5026;SDS011;2532;52.480;13.354;2023-05-16T16:17:06;6.60;;;2.37;;
5026;SDS011;2532;52.480;13.354;2023-05-16T16:19:36;6.43;;;2.23;;
5026;SDS011;2532;52.480;13.354;2023-05-16T16:22:03;8.57;;;2.70;;
5026;SDS011;2532;52.480;13.354;2023-05-16T16:24:30;7.47;;;1.80;;
5026;SDS011;2532;52.480;13.354;2023-05-16T16:26:57;7.03;;;2.13;;
5026;SDS011;2532;52.480;13.354;2023-05-16T16:29:25;3.80;;;1.73;;
5026;SDS011;2532;52.480;13.354;2023-05-16T16:31:55;4.27;;;2.60;;
5026;SDS011;2532;52.480;13.354;2023-05-16T16:34:22;6.30;;;1.90;;
5026;SDS011;2532;52.480;13.354;2023-05-16T16:36:48;5.60;;;2.87;;
5026;SDS011;2532;52.480;13.354;2023-05-16T16:39:16;3.83;;;2.43;;
5026;SDS011;2532;52.480;13.354;2023-05-16T16:41:45;4.20;;;2.00;;
5026;SDS011;2532;52.480;13.354;2023-05-16T16:44:33;6.20;;;2.07;;
5026;SDS011;2532;52.480;13.354;2023-05-16T16:47:03;6.10;;;2.40;;
5026;SDS011;2532;52.480;13.354;2023-05-16T16:49:30;3.53;;;2.50;;
5026;SDS011;2532;52.480;13.354;2023-05-16T16:51:57;9.77;;;2.60;;
5026;SDS011;2532;52.480;13.354;2023-05-16T16:54:24;5.70;;;2.00;;
5026;SDS011;2532;52.480;13.354;2023-05-16T16:56:52;6.30;;;2.27;;
5026;SDS011;2532;52.480;13.354;2023-05-16T16:59:19;4.43;;;1.93;;
5026;SDS011;2532;52.480;13.354;2023-05-16T17:01:47;5.13;;;2.03;;
5026;SDS011;2532;52.480;13.354;2023-05-16T17:04:14;3.57;;;1.70;;
5026;SDS011;2532;52.480;13.354;2023-05-16T17:06:41;5.73;;;2.17;;
5026;SDS011;2532;52.480;13.354;2023-05-16T17:09:08;5.90;;;1.90;;
5026;SDS011;2532;52.480;13.354;2023-05-16T17:11:38;6.73;;;2.27;;
5026;SDS011;2532;52.480;13.354;2023-05-16T17:14:06;4.90;;;2.00;;
5026;SDS011;2532;52.480;13.354;2023-05-16T17:16:34;6.90;;;2.07;;
5026;SDS011;2532;52.480;13.354;2023-05-16T17:19:03;4.27;;;1.90;;
5026;SDS011;2532;52.480;13.354;2023-05-16T17:21:30;7.10;;;1.97;;
5026;SDS011;2532;52.480;13.354;2023-05-16T17:23:58;7.10;;;2.97;;
5026;SDS011;2532;52.480;13.354;2023-05-16T17:26:25;4.37;;;2.50;;
5026;SDS011;2532;52.480;13.354;2023-05-16T17:28:53;3.60;;;2.27;;
5026;SDS011;2532;52.480;13.354;2023-05-16T17:31:22;5.00;;;2.20;;
5026;SDS011;2532;52.480;13.354;2023-05-16T17:33:49;4.50;;;2.50;;
5026;SDS011;2532;52.480;13.354;2023-05-16T17:36:18;4.67;;;2.30;;
5026;SDS011;2532;52.480;13.354;2023-05-16T17:38:45;10.47;;;2.80;;
5026;SDS011;2532;52.480;13.354;2023-05-16T17:41:12;9.63;;;2.80;;
5026;SDS011;2532;52.480;13.354;2023-05-16T17:43:39;14.60;;;3.70;;
5026;SDS011;2532;52.480;13.354;2023-05-16T17:46:07;8.07;;;2.40;;
5026;SDS011;2532;52.480;13.354;2023-05-16T17:48:34;4.00;;;2.30;;
5026;SDS011;2532;52.480;13.354;2023-05-16T17:51:01;5.10;;;1.90;;
5026;SDS011;2532;52.480;13.354;2023-05-16T17:53:29;3.37;;;2.27;;
5026;SDS011;2532;52.480;13.354;2023-05-16T17:55:56;5.13;;;2.33;;
5026;SDS011;2532;52.480;13.354;2023-05-16T17:58:23;7.43;;;2.50;;
5026;SDS011;2532;52.480;13.354;2023-05-16T18:00:50;2.93;;;2.10;;
5026;SDS011;2532;52.480;13.354;2023-05-16T18:03:18;4.87;;;2.10;;
5026;SDS011;2532;52.480;13.354;2023-05-16T18:05:45;6.70;;;2.73;;
5026;SDS011;2532;52.480;13.354;2023-05-16T18:08:13;3.97;;;2.10;;
5026;SDS011;2532;52.480;13.354;2023-05-16T18:10:41;5.03;;;2.53;;
5026;SDS011;2532;52.480;13.354;2023-05-16T18:13:09;5.77;;;2.83;;
5026;SDS011;2532;52.480;13.354;2023-05-16T18:15:36;5.23;;;2.10;;
5026;SDS011;2532;52.480;13.354;2023-05-16T18:18:03;4.90;;;2.40;;
5026;SDS011;2532;52.480;13.354;2023-05-16T18:20:30;7.20;;;2.80;;
5026;SDS011;2532;52.480;13.354;2023-05-16T18:22:58;4.03;;;2.47;;
5026;SDS011;2532;52.480;13.354;2023-05-16T18:25:26;13.03;;;2.37;;
5026;SDS011;2532;52.480;13.354;2023-05-16T18:27:54;7.60;;;2.60;;
5026;SDS011;2532;52.480;13.354;2023-05-16T18:30:21;6.30;;;2.70;;
5026;SDS011;2532;52.480;13.354;2023-05-16T18:32:48;7.50;;;2.23;;
5026;SDS011;2532;52.480;13.354;2023-05-16T18:35:15;6.73;;;3.30;;
5026;SDS011;2532;52.480;13.354;2023-05-16T18:37:42;7.63;;;2.77;;
5026;SDS011;2532;52.480;13.354;2023-05-16T18:40:10;4.90;;;2.57;;
5026;SDS011;2532;52.480;13.354;2023-05-16T18:42:37;7.23;;;2.67;;
5026;SDS011;2532;52.480;13.354;2023-05-16T18:45:06;11.30;;;2.80;;
5026;SDS011;2532;52.480;13.354;2023-05-16T18:47:34;4.57;;;1.97;;
5026;SDS011;2532;52.480;13.354;2023-05-16T18:50:01;5.70;;;2.60;;
5026;SDS011;2532;52.480;13.354;2023-05-16T18:52:29;6.10;;;2.60;;
5026;SDS011;2532;52.480;13.354;2023-05-16T18:54:55;3.80;;;2.37;;
5026;SDS011;2532;52.480;13.354;2023-05-16T18:57:22;4.47;;;2.10;;
5026;SDS011;2532;52.480;13.354;2023-05-16T18:59:49;5.33;;;1.90;;
5026;SDS011;2532;52.480;13.354;2023-05-16T19:02:18;4.80;;;2.50;;
5026;SDS011;2532;52.480;13.354;2023-05-16T19:04:45;8.53;;;2.50;;
5026;SDS011;2532;52.480;13.354;2023-05-16T19:07:11;13.83;;;2.07;;